Estación de Colina

Ultimos registro cada 15 minutos 31
Estación Fecha / Hora Temperatura Humedad Lluvia Velocidad Dirección Radiación Presion
31 Colina 04-05-2026 07:30 5,8 74 0 0 204 12 1015,8
30 Colina 04-05-2026 07:15 6,3 73 0 0 196 0 1015,7
29 Colina 04-05-2026 07:00 6,8 73 0 0 196 0 1015,8
28 Colina 04-05-2026 06:45 7,1 72 0 0 203 0 1015,7
27 Colina 04-05-2026 06:30 7,1 71 0 0 180 0 1015,7
26 Colina 04-05-2026 06:15 7,1 71 0 0 180 0 1015,4
25 Colina 04-05-2026 06:00 6,9 70 0 0 180 0 1015,5
24 Colina 04-05-2026 05:45 6,3 72 0 0 180 0 1015,4
23 Colina 04-05-2026 05:30 5,2 74 0 0 180 0 1015,3
22 Colina 04-05-2026 05:15 4,6 74 0 0 180 0 1015,3
21 Colina 04-05-2026 05:00 4,1 75 0 0 239 0 1015,2
20 Colina 04-05-2026 04:45 4,2 73 0 0 239 0 1015,1
19 Colina 04-05-2026 04:30 4,7 72 0 0 180 0 1015,1
18 Colina 04-05-2026 04:15 5 72 0 0 180 0 1015,3
17 Colina 04-05-2026 04:00 5 73 0 0 180 0 1015,5
16 Colina 04-05-2026 03:45 5 72 0 0 180 0 1015,6
15 Colina 04-05-2026 03:30 5,3 73 0 0 180 0 1015,6
14 Colina 04-05-2026 03:15 5,2 73 0 0 180 0 1015,9
13 Colina 04-05-2026 03:00 5,2 71 0 0 180 0 1016
12 Colina 04-05-2026 02:45 5,8 70 0 0 239 0 1016
11 Colina 04-05-2026 02:30 6,2 69 0 0 239 0 1016,2
10 Colina 04-05-2026 02:15 6,4 69 0 0 239 0 1016,4
9 Colina 04-05-2026 02:00 6,3 70 0 0 239 0 1016,7
8 Colina 04-05-2026 01:45 5,9 69 0 0 239 0 1016,8
7 Colina 04-05-2026 01:30 6,5 68 0 0 240 0 1017,3
6 Colina 04-05-2026 01:15 6,9 67 0 0 240 0 1017,1
5 Colina 04-05-2026 01:00 6,9 68 0 0 240 0 1017,1
4 Colina 04-05-2026 00:45 7,1 67 0 0 240 0 1017
3 Colina 04-05-2026 00:30 7,5 68 0 0 240 0 1017,2
2 Colina 04-05-2026 00:15 7,2 68 0 0 240 0 1017
1 Colina 04-05-2026 00:00 7,6 69 0 0 240 0 1017